Muir Army Air Field (Fort Indiantown Gap) Airport
KMUI : now visible

Airfield :











YOU CAN JOIN US ON...

 
LOGIN :

Register | Disclaimer

   EN    FR    IT 

 









Legend :    VFR   Marginal VFR   IFR   Intensive IFR   Very Intensive IFR
Visi :
Ceiling :
>= 8 km
>= 3000ft
5 to 8 km
1000 to 3000 ft
1500m to 5 km
500 to 1000 ft
800 to 1500m
200 to 500 ft
< 800m
< 200 ft
Symbols :   Thunderstorms  Fog  Heavy snow  Heavy precipitations  Wind > 20 kt






- Airport Elevation : 488 ft


KMUI - Muir Army Air Field (Fort Indiantown Gap)

CURRENT METAR :
  • 142016Z AUTO 23007KT 10SM BKN004 OVC080 07/07 A2925 RMK AO2 RAE1958DZB1958E16 SLP909 $

EXPIRED METARs :
  • 141956Z AUTO 24006KT 8SM -RA BKN004 OVC075 07/07 A2926 RMK AO2 RAE17DZB17E27RAB27 BKN V OVC SLP913 P0003 T00680068 $
  • 141936Z AUTO 24007KT 8SM -RA BKN004 OVC009 07/07 A2927 RMK AO2 RAE17DZB17E27RAB27 CIG 004V009 SLP916 $
  • 141920Z AUTO 20006KT 10SM -DZ BKN009 OVC070 07/07 A2927 RMK AO2 RAE17DZB17 CIG 009V070 BKN V SCT SLP916 $
  • 141856Z AUTO 26003KT 5SM RA BR FEW004 SCT011 07/07 A2925 RMK AO2 SLP909 P0016 T00690069 $
  • 141852Z AUTO 00000KT 5SM RA BR FEW004 SCT011 07/07 A2925 RMK AO2 SLP909 $
  • 141844Z AUTO 24003KT 6SM -RA BR SCT004 BKN012 07/07 A2926 RMK AO2 CIG 004V012 SLP913 $
  • 141812Z AUTO 24008KT 2 1/2SM RA BR BKN005 07/06 A2927 RMK AO2 VIS 1 5/8V2 1/2 SLP916 $
  • 141804Z AUTO 24008KT 1 5/8SM +RA BR BKN004 07/07 A2927 RMK AO2 VIS 1 5/8V4 SLP916 $
  • 141756Z AUTO 27007G16KT 4SM +RA BR BKN004 07/07 A2927 RMK AO2 SLP917 P0013 60017 T00700070 10086 20062 56048 $

Expired Forecast.



MET'MAP, your aeronautical weather chart ! - Copyright ORBIFLY December 2007 - Disclaimer

ORBIFLY MET'MAP TEAM :

Programming & Development : Alexandra Zaïnal
Concept & original design : Baudouin d'Aumeries
Assistance for programming : Marc-Olivier Méhu
Technical & hardware support : Manuel Goepfert

Contact : metmap@orbifly.com




SOURCES & CREDITS :

   NOAA       Earth
Advisory